sensor_id;sensor_type;location;lat;lon;timestamp;pressure;altitude;pressure_sealevel;temperature;humidity
15634;BME280;14654;48.898;8.308;2022-09-12T00:00:28;100365.78;;;13.34;100.00
15634;BME280;14654;48.898;8.308;2022-09-12T00:02:57;100357.16;;;13.32;100.00
15634;BME280;14654;48.898;8.308;2022-09-12T00:05:23;100356.38;;;13.29;100.00
15634;BME280;14654;48.898;8.308;2022-09-12T00:07:48;100358.97;;;13.27;100.00
15634;BME280;14654;48.898;8.308;2022-09-12T00:10:14;100364.22;;;13.25;100.00
15634;BME280;14654;48.898;8.308;2022-09-12T00:12:40;100353.03;;;13.22;100.00
15634;BME280;14654;48.898;8.308;2022-09-12T00:15:06;100353.97;;;13.18;100.00
15634;BME280;14654;48.898;8.308;2022-09-12T00:17:35;100344.50;;;13.15;100.00
15634;BME280;14654;48.898;8.308;2022-09-12T00:20:01;100350.59;;;13.13;100.00
15634;BME280;14654;48.898;8.308;2022-09-12T00:22:26;100351.53;;;13.08;100.00
15634;BME280;14654;48.898;8.308;2022-09-12T00:24:52;100355.91;;;13.06;100.00
15634;BME280;14654;48.898;8.308;2022-09-12T00:27:17;100361.16;;;13.02;100.00
15634;BME280;14654;48.898;8.308;2022-09-12T00:29:42;100349.09;;;12.99;100.00
15634;BME280;14654;48.898;8.308;2022-09-12T00:32:08;100346.56;;;12.96;100.00
15634;BME280;14654;48.898;8.308;2022-09-12T00:34:33;100339.72;;;12.92;100.00
15634;BME280;14654;48.898;8.308;2022-09-12T00:36:58;100346.69;;;12.90;100.00
15634;BME280;14654;48.898;8.308;2022-09-12T00:39:24;100343.25;;;12.88;100.00
15634;BME280;14654;48.898;8.308;2022-09-12T00:41:49;100343.25;;;12.86;100.00
15634;BME280;14654;48.898;8.308;2022-09-12T00:51:54;100331.22;;;12.82;100.00
15634;BME280;14654;48.898;8.308;2022-09-12T00:54:25;100324.31;;;12.79;100.00
15634;BME280;14654;48.898;8.308;2022-09-12T00:56:58;100325.22;;;12.78;100.00
15634;BME280;14654;48.898;8.308;2022-09-12T00:59:34;100320.00;;;12.78;100.00
15634;BME280;14654;48.898;8.308;2022-09-12T01:02:02;100323.56;;;12.74;100.00
15634;BME280;14654;48.898;8.308;2022-09-12T01:04:28;100321.88;;;12.72;100.00
15634;BME280;14654;48.898;8.308;2022-09-12T01:06:56;100329.69;;;12.70;100.00
15634;BME280;14654;48.898;8.308;2022-09-12T01:09:23;100310.69;;;12.68;100.00
15634;BME280;14654;48.898;8.308;2022-09-12T01:11:50;100323.72;;;12.65;100.00
15634;BME280;14654;48.898;8.308;2022-09-12T01:14:17;100315.16;;;12.60;100.00
15634;BME280;14654;48.898;8.308;2022-09-12T01:16:44;100313.50;;;12.56;100.00
15634;BME280;14654;48.898;8.308;2022-09-12T01:37:09;100310.06;;;12.54;100.00
15634;BME280;14654;48.898;8.308;2022-09-12T01:47:37;100294.56;;;12.49;100.00
15634;BME280;14654;48.898;8.308;2022-09-12T01:50:04;100298.00;;;12.49;100.00
15634;BME280;14654;48.898;8.308;2022-09-12T01:52:45;100292.00;;;12.47;100.00
15634;BME280;14654;48.898;8.308;2022-09-12T01:55:32;100294.66;;;12.44;100.00
15634;BME280;14654;48.898;8.308;2022-09-12T01:58:06;100290.34;;;12.43;100.00
15634;BME280;14654;48.898;8.308;2022-09-12T02:00:36;100289.50;;;12.41;100.00
15634;BME280;14654;48.898;8.308;2022-09-12T02:03:09;100288.63;;;12.42;100.00
15634;BME280;14654;48.898;8.308;2022-09-12T02:05:40;100278.28;;;12.39;100.00
15634;BME280;14654;48.898;8.308;2022-09-12T02:08:11;100281.81;;;12.35;100.00
15634;BME280;14654;48.898;8.308;2022-09-12T02:11:06;100275.84;;;12.30;100.00
15634;BME280;14654;48.898;8.308;2022-09-12T02:13:42;100278.50;;;12.25;100.00
15634;BME280;14654;48.898;8.308;2022-09-12T02:16:11;100269.97;;;12.18;100.00
15634;BME280;14654;48.898;8.308;2022-09-12T02:18:46;100276.09;;;12.14;100.00
15634;BME280;14654;48.898;8.308;2022-09-12T02:21:17;100271.00;;;12.10;100.00
15634;BME280;14654;48.898;8.308;2022-09-12T02:23:47;100265.84;;;12.07;100.00
15634;BME280;14654;48.898;8.308;2022-09-12T02:26:21;100272.78;;;12.03;100.00
15634;BME280;14654;48.898;8.308;2022-09-12T02:28:48;100272.81;;;12.01;100.00
15634;BME280;14654;48.898;8.308;2022-09-12T02:31:33;100273.72;;;12.00;100.00
15634;BME280;14654;48.898;8.308;2022-09-12T02:36:47;100272.00;;;12.01;100.00
15634;BME280;14654;48.898;8.308;2022-09-12T02:39:15;100271.13;;;11.97;100.00
15634;BME280;14654;48.898;8.308;2022-09-12T02:41:51;100272.88;;;11.95;100.00
15634;BME280;14654;48.898;8.308;2022-09-12T02:44:17;100272.91;;;11.94;100.00
15634;BME280;14654;48.898;8.308;2022-09-12T02:46:46;100276.41;;;11.89;100.00
15634;BME280;14654;48.898;8.308;2022-09-12T02:49:13;100269.59;;;11.85;100.00
15634;BME280;14654;48.898;8.308;2022-09-12T02:51:39;100271.34;;;11.82;100.00
15634;BME280;14654;48.898;8.308;2022-09-12T02:54:05;100273.13;;;11.78;100.00
15634;BME280;14654;48.898;8.308;2022-09-12T02:56:31;100266.22;;;11.77;100.00
15634;BME280;14654;48.898;8.308;2022-09-12T02:59:04;100271.41;;;11.79;100.00
15634;BME280;14654;48.898;8.308;2022-09-12T03:12:28;100262.69;;;11.84;100.00
15634;BME280;14654;48.898;8.308;2022-09-12T03:22:49;100267.13;;;11.74;100.00
15634;BME280;14654;48.898;8.308;2022-09-12T03:25:30;100268.03;;;11.73;100.00
15634;BME280;14654;48.898;8.308;2022-09-12T03:28:05;100277.50;;;11.73;100.00
15634;BME280;14654;48.898;8.308;2022-09-12T03:30:43;100273.25;;;11.70;100.00
15634;BME280;14654;48.898;8.308;2022-09-12T03:33:11;100276.75;;;11.68;100.00
15634;BME280;14654;48.898;8.308;2022-09-12T03:35:36;100272.44;;;11.65;100.00
15634;BME280;14654;48.898;8.308;2022-09-12T03:38:02;100275.06;;;11.64;100.00
15634;BME280;14654;48.898;8.308;2022-09-12T03:40:27;100276.84;;;11.60;100.00
15634;BME280;14654;48.898;8.308;2022-09-12T03:42:52;100271.69;;;11.57;100.00
15634;BME280;14654;48.898;8.308;2022-09-12T03:45:18;100270.84;;;11.55;100.00
15634;BME280;14654;48.898;8.308;2022-09-12T03:47:43;100276.94;;;11.52;100.00
15634;BME280;14654;48.898;8.308;2022-09-12T03:50:09;100267.50;;;11.48;100.00
15634;BME280;14654;48.898;8.308;2022-09-12T03:52:34;100265.81;;;11.46;100.00
15634;BME280;14654;48.898;8.308;2022-09-12T03:54:59;100271.84;;;11.46;100.00
15634;BME280;14654;48.898;8.308;2022-09-12T03:57:25;100266.66;;;11.48;100.00
15634;BME280;14654;48.898;8.308;2022-09-12T03:59:50;100267.50;;;11.48;100.00
15634;BME280;14654;48.898;8.308;2022-09-12T04:02:16;100264.91;;;11.48;100.00
15634;BME280;14654;48.898;8.308;2022-09-12T04:04:42;100268.34;;;11.50;100.00
15634;BME280;14654;48.898;8.308;2022-09-12T04:07:08;100263.16;;;11.50;100.00
15634;BME280;14654;48.898;8.308;2022-09-12T04:09:34;100266.59;;;11.51;100.00
15634;BME280;14654;48.898;8.308;2022-09-12T04:11:59;100267.50;;;11.48;100.00
15634;BME280;14654;48.898;8.308;2022-09-12T04:14:24;100253.72;;;11.44;100.00
15634;BME280;14654;48.898;8.308;2022-09-12T04:16:50;100265.81;;;11.44;100.00
15634;BME280;14654;48.898;8.308;2022-09-12T04:19:15;100252.00;;;11.43;100.00
15634;BME280;14654;48.898;8.308;2022-09-12T04:21:40;100259.78;;;11.43;100.00
15634;BME280;14654;48.898;8.308;2022-09-12T04:24:06;100253.72;;;11.43;100.00
15634;BME280;14654;48.898;8.308;2022-09-12T04:26:31;100257.19;;;11.42;100.00
15634;BME280;14654;48.898;8.308;2022-09-12T04:28:56;100252.88;;;11.42;100.00
15634;BME280;14654;48.898;8.308;2022-09-12T04:31:22;100255.50;;;11.41;100.00
15634;BME280;14654;48.898;8.308;2022-09-12T04:33:56;100247.72;;;11.39;100.00
15634;BME280;14654;48.898;8.308;2022-09-12T04:36:22;100250.34;;;11.38;100.00
15634;BME280;14654;48.898;8.308;2022-09-12T04:38:48;100248.63;;;11.37;100.00
15634;BME280;14654;48.898;8.308;2022-09-12T04:41:22;100243.44;;;11.38;100.00
15634;BME280;14654;48.898;8.308;2022-09-12T04:43:51;100245.13;;;11.41;100.00
15634;BME280;14654;48.898;8.308;2022-09-12T04:46:17;100245.06;;;11.44;100.00
15634;BME280;14654;48.898;8.308;2022-09-12T04:48:45;100245.84;;;11.51;100.00
15634;BME280;14654;48.898;8.308;2022-09-12T04:51:16;100251.81;;;11.57;100.00
15634;BME280;14654;48.898;8.308;2022-09-12T04:53:42;100245.72;;;11.62;100.00
15634;BME280;14654;48.898;8.308;2022-09-12T04:56:09;100251.69;;;11.65;100.00
15634;BME280;14654;48.898;8.308;2022-09-12T04:58:36;100262.97;;;11.64;100.00
15634;BME280;14654;48.898;8.308;2022-09-12T05:01:13;100261.25;;;11.62;100.00
15634;BME280;14654;48.898;8.308;2022-09-12T05:03:39;100264.78;;;11.56;100.00
15634;BME280;14654;48.898;8.308;2022-09-12T05:06:10;100261.44;;;11.49;100.00
15634;BME280;14654;48.898;8.308;2022-09-12T05:08:35;100271.88;;;11.43;100.00
15634;BME280;14654;48.898;8.308;2022-09-12T05:11:06;100268.47;;;11.41;100.00
15634;BME280;14654;48.898;8.308;2022-09-12T05:13:33;100285.72;;;11.40;100.00
15634;BME280;14654;48.898;8.308;2022-09-12T05:16:00;100273.66;;;11.39;100.00
15634;BME280;14654;48.898;8.308;2022-09-12T05:18:25;100272.78;;;11.40;100.00
15634;BME280;14654;48.898;8.308;2022-09-12T05:20:51;100280.44;;;11.48;100.00
15634;BME280;14654;48.898;8.308;2022-09-12T05:23:20;100277.72;;;11.57;100.00
15634;BME280;14654;48.898;8.308;2022-09-12T05:25:54;100277.59;;;11.68;100.00
15634;BME280;14654;48.898;8.308;2022-09-12T05:28:21;100275.75;;;11.75;100.00
15634;BME280;14654;48.898;8.308;2022-09-12T05:30:46;100272.19;;;11.84;100.00
15634;BME280;14654;48.898;8.308;2022-09-12T05:33:12;100274.59;;;11.96;100.00
15634;BME280;14654;48.898;8.308;2022-09-12T05:35:38;100275.31;;;12.09;100.00
15634;BME280;14654;48.898;8.308;2022-09-12T05:38:05;100271.63;;;12.23;100.00
15634;BME280;14654;48.898;8.308;2022-09-12T05:40:30;100274.94;;;12.32;100.00
15634;BME280;14654;48.898;8.308;2022-09-12T05:42:56;100273.13;;;12.38;100.00
15634;BME280;14654;48.898;8.308;2022-09-12T05:45:21;100267.06;;;12.39;100.00
15634;BME280;14654;48.898;8.308;2022-09-12T05:47:47;100268.66;;;12.46;100.00
15634;BME280;14654;48.898;8.308;2022-09-12T05:50:13;100270.94;;;12.63;100.00
15634;BME280;14654;48.898;8.308;2022-09-12T05:52:38;100269.09;;;12.71;100.00
15634;BME280;14654;48.898;8.308;2022-09-12T05:55:04;100277.56;;;12.81;100.00
15634;BME280;14654;48.898;8.308;2022-09-12T05:57:30;100286.84;;;12.94;100.00
15634;BME280;14654;48.898;8.308;2022-09-12T05:59:55;100280.69;;;13.00;100.00
15634;BME280;14654;48.898;8.308;2022-09-12T06:02:21;100281.50;;;13.02;100.00
15634;BME280;14654;48.898;8.308;2022-09-12T06:04:46;100278.03;;;13.03;100.00
15634;BME280;14654;48.898;8.308;2022-09-12T06:07:11;100277.13;;;13.04;100.00
15634;BME280;14654;48.898;8.308;2022-09-12T06:09:37;100281.31;;;13.13;100.00
15634;BME280;14654;48.898;8.308;2022-09-12T06:12:03;100286.97;;;13.32;100.00
15634;BME280;14654;48.898;8.308;2022-09-12T06:14:28;100286.66;;;13.49;100.00
15634;BME280;14654;48.898;8.308;2022-09-12T06:16:54;100287.47;;;13.53;100.00
15634;BME280;14654;48.898;8.308;2022-09-12T06:19:20;100283.16;;;13.52;100.00
15634;BME280;14654;48.898;8.308;2022-09-12T06:21:46;100284.88;;;13.51;100.00
15634;BME280;14654;48.898;8.308;2022-09-12T06:24:14;100281.34;;;13.54;100.00
15634;BME280;14654;48.898;8.308;2022-09-12T06:26:40;100286.44;;;13.60;100.00
15634;BME280;14654;48.898;8.308;2022-09-12T06:29:06;100282.06;;;13.62;100.00
15634;BME280;14654;48.898;8.308;2022-09-12T06:31:34;100286.22;;;13.69;100.00
15634;BME280;14654;48.898;8.308;2022-09-12T06:34:02;100280.78;;;13.82;100.00
15634;BME280;14654;48.898;8.308;2022-09-12T06:36:30;100281.66;;;14.18;100.00
15634;BME280;14654;48.898;8.308;2022-09-12T06:39:01;100282.81;;;14.43;100.00
15634;BME280;14654;48.898;8.308;2022-09-12T06:41:28;100280.72;;;14.56;100.00
15634;BME280;14654;48.898;8.308;2022-09-12T06:43:55;100279.72;;;14.61;100.00
15634;BME280;14654;48.898;8.308;2022-09-12T06:46:21;100271.88;;;14.63;100.00
15634;BME280;14654;48.898;8.308;2022-09-12T06:48:49;100270.72;;;14.75;100.00
15634;BME280;14654;48.898;8.308;2022-09-12T06:51:16;100276.63;;;15.13;100.00
15634;BME280;14654;48.898;8.308;2022-09-12T06:53:43;100267.00;;;15.75;100.00
15634;BME280;14654;48.898;8.308;2022-09-12T06:56:11;100265.88;;;16.39;100.00
15634;BME280;14654;48.898;8.308;2022-09-12T06:58:38;100274.88;;;16.81;100.00
15634;BME280;14654;48.898;8.308;2022-09-12T07:01:15;100281.22;;;17.25;100.00
15634;BME280;14654;48.898;8.308;2022-09-12T07:03:41;100279.16;;;17.57;100.00
15634;BME280;14654;48.898;8.308;2022-09-12T07:06:12;100272.41;;;17.73;100.00
15634;BME280;14654;48.898;8.308;2022-09-12T07:08:38;100271.09;;;17.85;100.00
15634;BME280;14654;48.898;8.308;2022-09-12T07:13:40;100281.09;;;17.97;100.00
15634;BME280;14654;48.898;8.308;2022-09-12T07:16:06;100283.72;;;17.97;100.00
15634;BME280;14654;48.898;8.308;2022-09-12T07:18:33;100288.66;;;18.05;100.00
15634;BME280;14654;48.898;8.308;2022-09-12T07:21:00;100283.19;;;18.11;100.00
15634;BME280;14654;48.898;8.308;2022-09-12T07:23:44;100278.19;;;18.05;100.00
15634;BME280;14654;48.898;8.308;2022-09-12T07:26:11;100273.28;;;17.96;100.00
15634;BME280;14654;48.898;8.308;2022-09-12T07:28:37;100274.72;;;17.81;100.00
15634;BME280;14654;48.898;8.308;2022-09-12T07:31:12;100275.00;;;17.75;100.00
15634;BME280;14654;48.898;8.308;2022-09-12T07:33:38;100272.78;;;17.64;100.00
15634;BME280;14654;48.898;8.308;2022-09-12T07:36:07;100277.34;;;17.59;100.00
15634;BME280;14654;48.898;8.308;2022-09-12T07:38:34;100272.00;;;17.62;100.00
15634;BME280;14654;48.898;8.308;2022-09-12T07:41:00;100272.81;;;17.62;100.00
15634;BME280;14654;48.898;8.308;2022-09-12T07:43:26;100276.19;;;17.66;100.00
15634;BME280;14654;48.898;8.308;2022-09-12T07:45:57;100275.91;;;17.74;100.00
15634;BME280;14654;48.898;8.308;2022-09-12T07:48:22;100279.44;;;17.73;100.00
15634;BME280;14654;48.898;8.308;2022-09-12T07:50:56;100276.38;;;17.61;100.00
15634;BME280;14654;48.898;8.308;2022-09-12T07:53:22;100280.03;;;17.57;100.00
15634;BME280;14654;48.898;8.308;2022-09-12T07:55:55;100277.59;;;17.52;100.00
15634;BME280;14654;48.898;8.308;2022-09-12T07:58:24;100279.41;;;17.50;100.00
15634;BME280;14654;48.898;8.308;2022-09-12T08:00:50;100281.91;;;17.54;100.00
15634;BME280;14654;48.898;8.308;2022-09-12T08:03:15;100282.63;;;17.57;100.00
15634;BME280;14654;48.898;8.308;2022-09-12T08:05:41;100278.19;;;17.59;100.00
15634;BME280;14654;48.898;8.308;2022-09-12T08:08:06;100284.09;;;17.64;100.00
15634;BME280;14654;48.898;8.308;2022-09-12T08:10:32;100284.28;;;17.60;100.00
15634;BME280;14654;48.898;8.308;2022-09-12T08:12:57;100283.59;;;17.55;100.00
15634;BME280;14654;48.898;8.308;2022-09-12T08:15:23;100284.47;;;17.55;100.00
15634;BME280;14654;48.898;8.308;2022-09-12T08:17:49;100284.38;;;17.57;100.00
15634;BME280;14654;48.898;8.308;2022-09-12T08:20:14;100286.78;;;17.63;100.00
15634;BME280;14654;48.898;8.308;2022-09-12T08:22:39;100284.59;;;17.74;100.00
15634;BME280;14654;48.898;8.308;2022-09-12T08:25:05;100278.22;;;17.81;100.00
15634;BME280;14654;48.898;8.308;2022-09-12T08:27:31;100278.81;;;17.88;100.00
15634;BME280;14654;48.898;8.308;2022-09-12T08:29:56;100279.34;;;17.98;100.00
15634;BME280;14654;48.898;8.308;2022-09-12T08:32:21;100279.28;;;18.00;100.00
15634;BME280;14654;48.898;8.308;2022-09-12T08:34:47;100278.91;;;18.09;100.00
15634;BME280;14654;48.898;8.308;2022-09-12T08:37:12;100274.09;;;18.20;100.00
15634;BME280;14654;48.898;8.308;2022-09-12T08:39:37;100275.38;;;18.10;100.00
15634;BME280;14654;48.898;8.308;2022-09-12T08:42:04;100279.66;;;18.12;100.00
15634;BME280;14654;48.898;8.308;2022-09-12T08:45:01;100277.75;;;18.16;100.00
15634;BME280;14654;48.898;8.308;2022-09-12T08:53:03;100276.88;;;18.58;100.00
15634;BME280;14654;48.898;8.308;2022-09-12T08:58:01;100274.59;;;18.71;100.00
15634;BME280;14654;48.898;8.308;2022-09-12T09:00:37;100269.91;;;18.78;100.00
15634;BME280;14654;48.898;8.308;2022-09-12T09:05:48;100265.75;;;18.95;100.00
15634;BME280;14654;48.898;8.308;2022-09-12T09:17:00;100265.00;;;19.50;100.00
15634;BME280;14654;48.898;8.308;2022-09-12T09:19:33;100262.78;;;19.60;100.00
15634;BME280;14654;48.898;8.308;2022-09-12T09:22:05;100264.34;;;19.64;100.00
15634;BME280;14654;48.898;8.308;2022-09-12T09:24:52;100261.50;;;19.69;100.00
15634;BME280;14654;48.898;8.308;2022-09-12T09:27:25;100266.38;;;19.76;100.00
15634;BME280;14654;48.898;8.308;2022-09-12T09:29:54;100268.31;;;19.92;100.00
15634;BME280;14654;48.898;8.308;2022-09-12T09:34:50;100264.72;;;20.30;100.00
15634;BME280;14654;48.898;8.308;2022-09-12T09:37:37;100257.75;;;20.46;100.00
15634;BME280;14654;48.898;8.308;2022-09-12T09:40:23;100254.75;;;20.54;100.00
15634;BME280;14654;48.898;8.308;2022-09-12T09:43:02;100262.53;;;20.73;99.98
15634;BME280;14654;48.898;8.308;2022-09-12T09:45:30;100261.16;;;20.83;99.82
15634;BME280;14654;48.898;8.308;2022-09-12T09:48:09;100267.19;;;20.85;99.53
15634;BME280;14654;48.898;8.308;2022-09-12T09:50:37;100263.91;;;20.98;98.31
15634;BME280;14654;48.898;8.308;2022-09-12T09:53:04;100253.97;;;21.03;97.69
15634;BME280;14654;48.898;8.308;2022-09-12T09:55:39;100254.75;;;21.05;97.17
15634;BME280;14654;48.898;8.308;2022-09-12T09:58:05;100251.91;;;21.10;97.05
15634;BME280;14654;48.898;8.308;2022-09-12T10:00:35;100255.13;;;21.15;97.34
15634;BME280;14654;48.898;8.308;2022-09-12T10:05:50;100248.59;;;21.22;97.60
15634;BME280;14654;48.898;8.308;2022-09-12T10:08:45;100239.34;;;21.31;97.43
15634;BME280;14654;48.898;8.308;2022-09-12T10:14:00;100235.25;;;21.57;96.20
15634;BME280;14654;48.898;8.308;2022-09-12T10:16:47;100234.78;;;21.67;95.54
15634;BME280;14654;48.898;8.308;2022-09-12T10:19:21;100233.00;;;21.67;94.34
15634;BME280;14654;48.898;8.308;2022-09-12T10:21:53;100226.53;;;21.73;93.75
15634;BME280;14654;48.898;8.308;2022-09-12T10:24:25;100234.25;;;21.76;93.39
15634;BME280;14654;48.898;8.308;2022-09-12T10:26:55;100215.41;;;21.68;93.24
15634;BME280;14654;48.898;8.308;2022-09-12T10:29:27;100221.25;;;21.73;92.84
15634;BME280;14654;48.898;8.308;2022-09-12T10:31:58;100211.41;;;21.76;93.20
15634;BME280;14654;48.898;8.308;2022-09-12T10:34:38;100212.91;;;21.81;92.12
15634;BME280;14654;48.898;8.308;2022-09-12T10:37:09;100206.44;;;21.86;91.90
15634;BME280;14654;48.898;8.308;2022-09-12T10:39:40;100207.63;;;21.97;91.29
15634;BME280;14654;48.898;8.308;2022-09-12T10:42:05;100201.28;;;22.15;89.47
15634;BME280;14654;48.898;8.308;2022-09-12T10:44:33;100202.88;;;22.18;88.26
15634;BME280;14654;48.898;8.308;2022-09-12T10:47:18;100197.16;;;22.26;87.68
15634;BME280;14654;48.898;8.308;2022-09-12T10:49:44;100199.78;;;22.26;87.48
15634;BME280;14654;48.898;8.308;2022-09-12T10:52:23;100190.84;;;22.28;87.31
15634;BME280;14654;48.898;8.308;2022-09-12T10:55:15;100183.00;;;22.43;87.14
15634;BME280;14654;48.898;8.308;2022-09-12T11:00:21;100190.53;;;22.63;87.38
15634;BME280;14654;48.898;8.308;2022-09-12T11:05:49;100177.25;;;22.79;85.69
15634;BME280;14654;48.898;8.308;2022-09-12T11:16:30;100161.41;;;22.94;84.67
15634;BME280;14654;48.898;8.308;2022-09-12T11:19:27;100163.19;;;23.08;84.27
15634;BME280;14654;48.898;8.308;2022-09-12T11:22:16;100154.78;;;23.16;84.29
15634;BME280;14654;48.898;8.308;2022-09-12T11:25:10;100160.97;;;23.29;83.63
15634;BME280;14654;48.898;8.308;2022-09-12T11:30:36;100154.94;;;23.27;82.75
15634;BME280;14654;48.898;8.308;2022-09-12T11:35:34;100148.53;;;23.31;82.88
15634;BME280;14654;48.898;8.308;2022-09-12T11:40:38;100141.69;;;23.41;82.18
15634;BME280;14654;48.898;8.308;2022-09-12T11:46:01;100131.59;;;23.21;82.73
15634;BME280;14654;48.898;8.308;2022-09-12T11:48:34;100131.56;;;23.35;82.56
15634;BME280;14654;48.898;8.308;2022-09-12T11:51:04;100133.75;;;23.28;82.82
15634;BME280;14654;48.898;8.308;2022-09-12T11:53:35;100125.91;;;23.27;81.74
15634;BME280;14654;48.898;8.308;2022-09-12T11:56:23;100114.78;;;23.22;82.44
15634;BME280;14654;48.898;8.308;2022-09-12T11:58:58;100109.31;;;23.25;82.78
15634;BME280;14654;48.898;8.308;2022-09-12T12:01:31;100105.03;;;23.37;82.75
15634;BME280;14654;48.898;8.308;2022-09-12T12:04:02;100104.72;;;23.41;82.73
15634;BME280;14654;48.898;8.308;2022-09-12T12:06:31;100102.78;;;23.58;81.92
15634;BME280;14654;48.898;8.308;2022-09-12T12:08:58;100105.41;;;23.58;82.19
15634;BME280;14654;48.898;8.308;2022-09-12T12:11:29;100101.00;;;23.58;81.71
15634;BME280;14654;48.898;8.308;2022-09-12T12:14:03;100103.63;;;23.58;81.31
15634;BME280;14654;48.898;8.308;2022-09-12T12:16:32;100099.06;;;23.60;81.39
15634;BME280;14654;48.898;8.308;2022-09-12T12:21:50;100092.19;;;23.58;80.96
15634;BME280;14654;48.898;8.308;2022-09-12T12:24:18;100095.72;;;23.58;81.11
15634;BME280;14654;48.898;8.308;2022-09-12T12:26:52;100088.41;;;23.62;81.14
15634;BME280;14654;48.898;8.308;2022-09-12T12:36:55;100091.06;;;23.62;81.20
15634;BME280;14654;48.898;8.308;2022-09-12T12:41:59;100080.06;;;23.55;81.09
15634;BME280;14654;48.898;8.308;2022-09-12T12:55:16;100065.63;;;23.74;81.79
15634;BME280;14654;48.898;8.308;2022-09-12T12:57:50;100065.09;;;23.82;82.10
15634;BME280;14654;48.898;8.308;2022-09-12T13:03:09;100068.78;;;23.79;81.04
15634;BME280;14654;48.898;8.308;2022-09-12T13:05:50;100052.72;;;23.82;80.81
15634;BME280;14654;48.898;8.308;2022-09-12T13:13:35;100043.84;;;23.83;81.17
15634;BME280;14654;48.898;8.308;2022-09-12T13:16:02;100049.44;;;23.92;81.45
15634;BME280;14654;48.898;8.308;2022-09-12T13:18:53;100042.94;;;23.97;80.81
15634;BME280;14654;48.898;8.308;2022-09-12T13:21:19;100043.66;;;23.99;79.98
15634;BME280;14654;48.898;8.308;2022-09-12T13:24:21;100037.69;;;23.83;80.24
15634;BME280;14654;48.898;8.308;2022-09-12T13:26:47;100034.97;;;23.84;80.68
15634;BME280;14654;48.898;8.308;2022-09-12T13:29:20;100030.50;;;23.85;80.15
15634;BME280;14654;48.898;8.308;2022-09-12T13:31:52;100024.81;;;23.91;79.19
15634;BME280;14654;48.898;8.308;2022-09-12T13:34:34;100021.63;;;23.86;79.57
15634;BME280;14654;48.898;8.308;2022-09-12T13:41:19;100018.47;;;23.81;79.63
15634;BME280;14654;48.898;8.308;2022-09-12T13:43:29;100016.34;;;23.86;78.61
15634;BME280;14654;48.898;8.308;2022-09-12T13:46:00;100013.06;;;23.82;78.60
15634;BME280;14654;48.898;8.308;2022-09-12T13:48:25;100015.84;;;23.81;78.44
15634;BME280;14654;48.898;8.308;2022-09-12T13:50:54;100011.06;;;23.86;78.59
15634;BME280;14654;48.898;8.308;2022-09-12T13:53:23;100005.69;;;23.87;78.53
15634;BME280;14654;48.898;8.308;2022-09-12T13:55:57;100007.25;;;23.90;78.74
15634;BME280;14654;48.898;8.308;2022-09-12T13:58:25;99997.75;;;24.00;77.47
15634;BME280;14654;48.898;8.308;2022-09-12T14:03:54;99988.56;;;24.06;79.36
15634;BME280;14654;48.898;8.308;2022-09-12T14:09:21;99985.81;;;24.08;79.20
15634;BME280;14654;48.898;8.308;2022-09-12T14:11:47;99993.22;;;24.02;79.27
15634;BME280;14654;48.898;8.308;2022-09-12T14:14:36;99991.53;;;24.01;79.45
15634;BME280;14654;48.898;8.308;2022-09-12T14:17:35;99982.44;;;24.05;79.70
15634;BME280;14654;48.898;8.308;2022-09-12T14:20:06;99980.41;;;24.09;78.90
15634;BME280;14654;48.898;8.308;2022-09-12T14:22:34;99982.66;;;24.02;78.40
15634;BME280;14654;48.898;8.308;2022-09-12T14:25:00;99979.16;;;24.02;77.81
15634;BME280;14654;48.898;8.308;2022-09-12T14:27:40;99971.44;;;23.99;77.39
15634;BME280;14654;48.898;8.308;2022-09-12T14:30:30;99971.34;;;24.00;76.95
15634;BME280;14654;48.898;8.308;2022-09-12T14:35:28;99975.22;;;23.95;77.65
15634;BME280;14654;48.898;8.308;2022-09-12T14:37:54;99969.09;;;23.94;77.00
15634;BME280;14654;48.898;8.308;2022-09-12T14:40:22;99973.44;;;23.95;77.33
15634;BME280;14654;48.898;8.308;2022-09-12T14:42:49;99965.59;;;23.94;77.62
15634;BME280;14654;48.898;8.308;2022-09-12T14:45:28;99972.59;;;23.95;78.00
15634;BME280;14654;48.898;8.308;2022-09-12T14:47:54;99972.06;;;24.02;77.33
15634;BME280;14654;48.898;8.308;2022-09-12T14:50:23;99956.94;;;24.04;77.10
15634;BME280;14654;48.898;8.308;2022-09-12T14:55:56;99962.13;;;23.93;76.99
15634;BME280;14654;48.898;8.308;2022-09-12T14:58:25;99954.66;;;24.00;76.19
15634;BME280;14654;48.898;8.308;2022-09-12T15:06:01;99940.56;;;23.86;76.35
15634;BME280;14654;48.898;8.308;2022-09-12T15:08:28;99949.47;;;23.85;76.69
15634;BME280;14654;48.898;8.308;2022-09-12T15:10:55;99932.97;;;23.82;76.24
15634;BME280;14654;48.898;8.308;2022-09-12T15:13:23;99938.03;;;23.85;76.52
15634;BME280;14654;48.898;8.308;2022-09-12T15:15:53;99930.97;;;23.85;76.13
15634;BME280;14654;48.898;8.308;2022-09-12T15:18:21;99936.44;;;23.82;75.83
15634;BME280;14654;48.898;8.308;2022-09-12T15:20:50;99933.94;;;23.81;75.97
15634;BME280;14654;48.898;8.308;2022-09-12T15:25:44;99930.00;;;23.73;76.23
15634;BME280;14654;48.898;8.308;2022-09-12T15:28:20;99924.84;;;23.72;76.28
15634;BME280;14654;48.898;8.308;2022-09-12T15:30:47;99922.09;;;23.73;76.99
15634;BME280;14654;48.898;8.308;2022-09-12T15:33:18;99923.44;;;23.79;76.96
15634;BME280;14654;48.898;8.308;2022-09-12T15:35:44;99923.38;;;23.81;76.49
15634;BME280;14654;48.898;8.308;2022-09-12T15:38:10;99917.88;;;23.71;76.31
15634;BME280;14654;48.898;8.308;2022-09-12T15:40:35;99920.50;;;23.71;76.00
15634;BME280;14654;48.898;8.308;2022-09-12T15:43:01;99921.47;;;23.70;76.32